Time;durP1;ratioP1;P1;durP2;ratioP2;P2;SDS_P1;SDS_P2;PMS_P1;PMS_P2;Temp;Humidity;BMP_temperature;BMP_pressure;BME280_temperature;BME280_humidity;BME280_pressure;Samples;Min_cycle;Max_cycle;Signal;HPM_P1;HPM_P2
2022/03/01 00:00:16;;;;;;;10.70;7.63;;;;;;;;;;5058678;28;20202;-86
2022/03/01 00:02:45;;;;;;;8.35;7.28;;;;;;;;;;5059458;28;20243;-85
2022/03/01 00:05:12;;;;;;;8.32;6.40;;;;;;;;;;5038500;28;20226;-85
2022/03/01 00:07:40;;;;;;;9.00;7.75;;;;;;;;;;5037958;28;20209;-85
2022/03/01 00:10:09;;;;;;;10.93;8.23;;;;;;;;;;5039334;28;20198;-85
2022/03/01 00:12:36;;;;;;;9.25;7.47;;;;;;;;;;5039093;28;20230;-86
2022/03/01 00:15:04;;;;;;;12.38;8.88;;;;;;;;;;5038814;28;20213;-85
2022/03/01 00:17:31;;;;;;;8.90;7.05;;;;;;;;;;5039200;28;20201;-85
2022/03/01 00:20:00;;;;;;;10.02;7.57;;;;;;;;;;5038794;28;20195;-85
2022/03/01 00:22:27;;;;;;;9.95;7.32;;;;;;;;;;5038623;28;20226;-85
2022/03/01 00:24:55;;;;;;;10.07;8.10;;;;;;;;;;5038373;28;20205;-85
2022/03/01 00:27:22;;;;;;;8.73;6.95;;;;;;;;;;5038355;28;20702;-85
2022/03/01 00:29:49;;;;;;;11.13;8.00;;;;;;;;;;5038354;28;20195;-85
2022/03/01 00:32:17;;;;;;;7.88;7.07;;;;;;;;;;5037368;28;20207;-85
2022/03/01 00:34:44;;;;;;;9.57;8.57;;;;;;;;;;5054259;28;20198;-85
2022/03/01 00:37:13;;;;;;;13.10;8.27;;;;;;;;;;5057633;28;20201;-85
2022/03/01 00:39:40;;;;;;;13.85;9.65;;;;;;;;;;5057528;28;20201;-87
2022/03/01 00:42:08;;;;;;;16.00;10.55;;;;;;;;;;5057595;28;20206;-85
2022/03/01 00:44:36;;;;;;;11.23;8.73;;;;;;;;;;5057698;28;20205;-85
2022/03/01 00:47:04;;;;;;;14.23;10.27;;;;;;;;;;5057577;28;20225;-86
2022/03/01 00:49:31;;;;;;;10.75;8.65;;;;;;;;;;5057808;28;20736;-85
2022/03/01 00:51:58;;;;;;;13.80;9.25;;;;;;;;;;5057152;28;20232;-84
2022/03/01 00:54:27;;;;;;;12.32;8.88;;;;;;;;;;5057484;28;20198;-84
2022/03/01 00:56:54;;;;;;;12.57;10.23;;;;;;;;;;5057264;28;20670;-84
2022/03/01 00:59:22;;;;;;;14.45;11.13;;;;;;;;;;5057070;28;20202;-84
2022/03/01 01:01:49;;;;;;;13.35;9.52;;;;;;;;;;5056983;28;20197;-85
2022/03/01 01:04:17;;;;;;;12.70;10.73;;;;;;;;;;5057019;28;20731;-84
2022/03/01 01:06:44;;;;;;;15.15;11.32;;;;;;;;;;5057148;28;20312;-85
2022/03/01 01:09:13;;;;;;;11.85;9.27;;;;;;;;;;5057381;28;20198;-85
2022/03/01 01:11:43;;;;;;;12.88;10.18;;;;;;;;;;5057211;28;20682;-86
2022/03/01 01:14:10;;;;;;;15.98;10.15;;;;;;;;;;5057380;28;20221;-85
2022/03/01 01:16:37;;;;;;;11.43;9.18;;;;;;;;;;5056702;28;20634;-85
2022/03/01 01:19:05;;;;;;;15.32;11.52;;;;;;;;;;5057073;28;20681;-84
2022/03/01 01:24:13;;;;;;;16.98;10.45;;;;;;;;;;5055578;28;20226;-85
2022/03/01 01:26:42;;;;;;;18.15;11.57;;;;;;;;;;5059495;28;20225;-84
2022/03/01 01:29:09;;;;;;;17.17;10.93;;;;;;;;;;5065067;28;20658;-84
2022/03/01 01:31:37;;;;;;;11.70;9.70;;;;;;;;;;5062165;28;20201;-84
2022/03/01 01:34:04;;;;;;;13.95;9.98;;;;;;;;;;5057248;28;20233;-84
2022/03/01 01:36:31;;;;;;;13.63;10.90;;;;;;;;;;5057175;28;20288;-85
2022/03/01 01:39:00;;;;;;;11.07;9.07;;;;;;;;;;5057487;28;20197;-85
2022/03/01 01:41:27;;;;;;;13.38;10.82;;;;;;;;;;5057205;28;20564;-84
2022/03/01 01:43:56;;;;;;;14.23;9.98;;;;;;;;;;5057023;28;20224;-84
2022/03/01 01:46:23;;;;;;;13.40;10.57;;;;;;;;;;5057193;28;20221;-85
2022/03/01 01:48:51;;;;;;;16.75;12.13;;;;;;;;;;5056898;28;20201;-83
2022/03/01 01:51:18;;;;;;;15.70;11.15;;;;;;;;;;5056527;28;20202;-84
2022/03/01 01:53:45;;;;;;;12.23;8.40;;;;;;;;;;5056182;28;20747;-84
2022/03/01 01:56:13;;;;;;;14.43;10.43;;;;;;;;;;5056643;28;20198;-84
2022/03/01 01:58:40;;;;;;;9.93;8.50;;;;;;;;;;5056898;28;20212;-84
2022/03/01 02:01:09;;;;;;;15.05;10.48;;;;;;;;;;5056149;28;20205;-84
2022/03/01 02:03:36;;;;;;;12.52;9.30;;;;;;;;;;5056286;28;20225;-83
2022/03/01 02:06:04;;;;;;;12.80;8.63;;;;;;;;;;5056561;28;20555;-83
2022/03/01 02:08:31;;;;;;;12.00;9.43;;;;;;;;;;5056555;28;20225;-84
2022/03/01 02:10:59;;;;;;;11.07;8.55;;;;;;;;;;5055963;28;20206;-83
2022/03/01 02:13:27;;;;;;;12.07;9.77;;;;;;;;;;5055352;28;20223;-85
2022/03/01 02:15:55;;;;;;;11.63;8.82;;;;;;;;;;5055728;28;20201;-84
2022/03/01 02:18:24;;;;;;;16.10;10.27;;;;;;;;;;5056305;28;20208;-84
2022/03/01 02:20:53;;;;;;;11.93;9.27;;;;;;;;;;5056118;28;20205;-84
2022/03/01 02:23:20;;;;;;;11.55;9.18;;;;;;;;;;5055828;28;20221;-84
2022/03/01 02:25:48;;;;;;;12.55;9.65;;;;;;;;;;5056385;28;20197;-83
2022/03/01 02:28:15;;;;;;;12.65;9.07;;;;;;;;;;5055949;28;20225;-84
2022/03/01 02:30:42;;;;;;;13.60;9.90;;;;;;;;;;5055535;28;20205;-84
2022/03/01 02:33:09;;;;;;;11.13;9.05;;;;;;;;;;5055797;28;20234;-84
2022/03/01 02:35:37;;;;;;;14.07;9.35;;;;;;;;;;5056630;28;20201;-84
2022/03/01 02:38:06;;;;;;;12.65;8.80;;;;;;;;;;5056128;28;20217;-83
2022/03/01 02:40:33;;;;;;;14.45;10.15;;;;;;;;;;5055946;28;20777;-84
2022/03/01 02:43:01;;;;;;;13.20;10.27;;;;;;;;;;5055752;28;20712;-84
2022/03/01 02:45:28;;;;;;;11.90;10.38;;;;;;;;;;5056116;28;20204;-85
2022/03/01 02:47:55;;;;;;;9.52;8.52;;;;;;;;;;5056255;28;20224;-83
2022/03/01 02:50:23;;;;;;;11.90;8.57;;;;;;;;;;5056102;28;20193;-83
2022/03/01 02:52:50;;;;;;;10.52;7.90;;;;;;;;;;5055502;28;20754;-84
2022/03/01 02:55:19;;;;;;;12.20;8.38;;;;;;;;;;5055478;28;20224;-85
2022/03/01 02:57:46;;;;;;;15.07;9.50;;;;;;;;;;5056104;28;20213;-83
2022/03/01 03:00:14;;;;;;;12.10;9.73;;;;;;;;;;5056415;28;20224;-84
2022/03/01 03:02:43;;;;;;;13.43;9.48;;;;;;;;;;5055414;28;20225;-84
2022/03/01 03:05:11;;;;;;;13.90;9.20;;;;;;;;;;5056571;28;20688;-84
2022/03/01 03:07:38;;;;;;;14.48;9.48;;;;;;;;;;5060085;28;20233;-85
2022/03/01 03:10:07;;;;;;;14.95;9.80;;;;;;;;;;5058558;28;20205;-83
2022/03/01 03:12:35;;;;;;;11.80;8.93;;;;;;;;;;5059373;28;20225;-84
2022/03/01 03:15:03;;;;;;;15.27;9.90;;;;;;;;;;5059692;28;20202;-84
2022/03/01 03:17:31;;;;;;;12.70;9.27;;;;;;;;;;5059174;28;20201;-83
2022/03/01 03:19:58;;;;;;;14.15;9.82;;;;;;;;;;5058762;28;20206;-84
2022/03/01 03:22:25;;;;;;;15.02;8.45;;;;;;;;;;5058787;28;20634;-83
2022/03/01 03:24:53;;;;;;;14.88;9.25;;;;;;;;;;5059692;28;20206;-85
2022/03/01 03:27:20;;;;;;;12.35;8.95;;;;;;;;;;5058935;28;20619;-83
2022/03/01 03:29:49;;;;;;;12.23;9.50;;;;;;;;;;5058273;28;20201;-84
2022/03/01 03:32:16;;;;;;;12.10;9.15;;;;;;;;;;5058377;28;20248;-84
2022/03/01 03:34:43;;;;;;;14.43;8.90;;;;;;;;;;5058283;28;20202;-83
2022/03/01 03:37:11;;;;;;;13.63;9.68;;;;;;;;;;5058367;28;20197;-83
2022/03/01 03:39:38;;;;;;;13.38;9.40;;;;;;;;;;5059035;28;20204;-84
2022/03/01 03:42:05;;;;;;;12.20;8.07;;;;;;;;;;5058757;28;20601;-84
2022/03/01 03:44:33;;;;;;;11.77;8.60;;;;;;;;;;5058965;28;20205;-83
2022/03/01 03:47:01;;;;;;;12.50;9.55;;;;;;;;;;5058152;28;20247;-84
2022/03/01 03:49:29;;;;;;;11.68;8.25;;;;;;;;;;5058494;28;20772;-83
2022/03/01 03:51:56;;;;;;;11.80;8.18;;;;;;;;;;5057672;28;20630;-83
2022/03/01 03:54:23;;;;;;;11.05;8.00;;;;;;;;;;5058350;28;20205;-83
2022/03/01 03:56:51;;;;;;;11.70;9.23;;;;;;;;;;5058906;28;20202;-83
2022/03/01 03:59:18;;;;;;;12.15;8.52;;;;;;;;;;5058420;28;20206;-84
2022/03/01 04:01:45;;;;;;;11.80;8.38;;;;;;;;;;5057826;28;20240;-83
2022/03/01 04:04:14;;;;;;;15.77;10.07;;;;;;;;;;5058239;28;20245;-84
2022/03/01 04:06:41;;;;;;;14.57;9.30;;;;;;;;;;5058322;28;20201;-84
2022/03/01 04:09:09;;;;;;;9.80;7.90;;;;;;;;;;5058183;28;20287;-83
2022/03/01 04:11:36;;;;;;;10.15;7.47;;;;;;;;;;5057397;28;20217;-84
2022/03/01 04:14:04;;;;;;;10.18;8.60;;;;;;;;;;5058946;28;20248;-85
2022/03/01 04:16:31;;;;;;;10.55;8.00;;;;;;;;;;5057272;28;20210;-84
2022/03/01 04:18:58;;;;;;;10.10;7.30;;;;;;;;;;5057798;28;20201;-83
2022/03/01 04:21:27;;;;;;;9.48;7.18;;;;;;;;;;5057671;28;20205;-84
2022/03/01 04:23:54;;;;;;;8.10;7.05;;;;;;;;;;5058091;28;20221;-83
2022/03/01 04:26:23;;;;;;;9.25;7.07;;;;;;;;;;5057495;28;20209;-83
2022/03/01 04:28:50;;;;;;;6.32;5.55;;;;;;;;;;5058439;28;20228;-84
2022/03/01 04:31:17;;;;;;;9.38;6.78;;;;;;;;;;5058184;28;20197;-84
2022/03/01 04:33:45;;;;;;;9.60;6.68;;;;;;;;;;5057121;28;20222;-83
2022/03/01 04:36:13;;;;;;;11.75;8.00;;;;;;;;;;5055969;28;20210;-84
2022/03/01 04:38:42;;;;;;;12.20;9.10;;;;;;;;;;5057229;28;20202;-83
2022/03/01 04:41:10;;;;;;;11.73;8.93;;;;;;;;;;5056314;28;20748;-84
2022/03/01 04:43:38;;;;;;;13.32;8.35;;;;;;;;;;5056832;28;20226;-82
2022/03/01 04:46:05;;;;;;;11.10;7.80;;;;;;;;;;5056982;28;20198;-83
2022/03/01 04:48:33;;;;;;;10.88;8.05;;;;;;;;;;5056784;28;20221;-84
2022/03/01 04:51:06;;;;;;;12.65;8.20;;;;;;;;;;5057489;28;20210;-84
2022/03/01 04:53:33;;;;;;;13.27;9.32;;;;;;;;;;5057416;28;20222;-84
2022/03/01 04:56:02;;;;;;;9.85;7.18;;;;;;;;;;5057314;28;20202;-83
2022/03/01 04:58:29;;;;;;;12.18;8.15;;;;;;;;;;5058382;28;20198;-84
2022/03/01 05:00:58;;;;;;;12.25;8.75;;;;;;;;;;5057396;28;20240;-83
2022/03/01 05:03:25;;;;;;;14.52;8.77;;;;;;;;;;5057035;28;20577;-84
2022/03/01 05:05:52;;;;;;;9.57;7.65;;;;;;;;;;5056734;28;20205;-84
2022/03/01 05:08:21;;;;;;;12.00;8.10;;;;;;;;;;5056536;28;20222;-84
2022/03/01 05:10:48;;;;;;;15.55;9.23;;;;;;;;;;5057985;28;20198;-84
2022/03/01 05:13:17;;;;;;;14.38;8.68;;;;;;;;;;5057427;28;20222;-84
2022/03/01 05:15:44;;;;;;;13.63;8.70;;;;;;;;;;5056272;28;20205;-83
2022/03/01 05:18:11;;;;;;;10.05;8.48;;;;;;;;;;5056595;28;20194;-84
2022/03/01 05:20:38;;;;;;;10.60;8.07;;;;;;;;;;5056334;28;20206;-83
2022/03/01 05:23:06;;;;;;;11.80;9.05;;;;;;;;;;5056479;28;20226;-83
2022/03/01 05:25:33;;;;;;;13.02;8.77;;;;;;;;;;5056313;28;20688;-83
2022/03/01 05:28:01;;;;;;;12.77;9.25;;;;;;;;;;5055370;28;20240;-83
2022/03/01 05:30:30;;;;;;;15.93;10.27;;;;;;;;;;5055691;28;20201;-83
2022/03/01 05:32:58;;;;;;;9.85;7.88;;;;;;;;;;5056400;28;20237;-83
2022/03/01 05:35:27;;;;;;;11.32;8.57;;;;;;;;;;5056019;28;20202;-84
2022/03/01 05:37:55;;;;;;;12.73;8.57;;;;;;;;;;5056691;28;20201;-84
2022/03/01 05:40:25;;;;;;;11.45;8.15;;;;;;;;;;5056612;28;20201;-83
2022/03/01 05:42:52;;;;;;;11.85;8.23;;;;;;;;;;5056382;28;20229;-85
2022/03/01 05:45:21;;;;;;;11.00;8.20;;;;;;;;;;5055984;28;20201;-83
2022/03/01 05:47:49;;;;;;;11.38;8.23;;;;;;;;;;5055496;28;20616;-84
2022/03/01 05:50:18;;;;;;;14.70;9.05;;;;;;;;;;5054283;28;20228;-83
2022/03/01 05:52:45;;;;;;;11.15;7.97;;;;;;;;;;5054724;28;20789;-84
2022/03/01 05:55:13;;;;;;;12.27;7.65;;;;;;;;;;5056603;28;20205;-84
2022/03/01 05:57:41;;;;;;;11.57;9.20;;;;;;;;;;5056963;28;20200;-84
2022/03/01 06:00:12;;;;;;;8.38;7.43;;;;;;;;;;5055535;28;20201;-84
2022/03/01 06:02:40;;;;;;;12.25;8.95;;;;;;;;;;5055493;28;20702;-84
2022/03/01 06:05:09;;;;;;;12.15;7.85;;;;;;;;;;5055567;28;20209;-85
2022/03/01 06:07:37;;;;;;;15.23;9.18;;;;;;;;;;5054233;28;20197;-85
2022/03/01 06:10:05;;;;;;;11.27;7.88;;;;;;;;;;5054747;28;20701;-82
2022/03/01 06:12:32;;;;;;;9.77;7.45;;;;;;;;;;5053580;28;20595;-83
2022/03/01 06:15:00;;;;;;;11.82;8.32;;;;;;;;;;5054033;28;20288;-83
2022/03/01 06:17:27;;;;;;;11.15;7.35;;;;;;;;;;5053811;28;20197;-83
2022/03/01 06:19:54;;;;;;;13.48;9.20;;;;;;;;;;5055033;28;20205;-83
2022/03/01 06:22:23;;;;;;;9.63;7.63;;;;;;;;;;5054036;28;20221;-82
2022/03/01 06:24:50;;;;;;;8.85;6.78;;;;;;;;;;5053575;28;20206;-84
2022/03/01 06:27:18;;;;;;;11.02;8.27;;;;;;;;;;5057121;28;20189;-82
2022/03/01 06:29:45;;;;;;;9.07;6.53;;;;;;;;;;5055026;28;20225;-84
2022/03/01 06:32:12;;;;;;;8.45;7.25;;;;;;;;;;5051879;28;20227;-81
2022/03/01 06:34:40;;;;;;;10.55;7.57;;;;;;;;;;5047267;28;20217;-82
2022/03/01 06:37:13;;;;;;;12.35;7.78;;;;;;;;;;5052009;28;20205;-82
2022/03/01 06:39:43;;;;;;;10.02;7.30;;;;;;;;;;5053274;28;20217;-81
2022/03/01 06:42:12;;;;;;;9.32;7.00;;;;;;;;;;5056816;28;20217;-82
2022/03/01 06:44:39;;;;;;;10.20;7.18;;;;;;;;;;5056952;28;20735;-83
2022/03/01 06:47:07;;;;;;;11.55;7.50;;;;;;;;;;5056937;28;20202;-82
2022/03/01 06:49:35;;;;;;;10.93;8.43;;;;;;;;;;5057377;28;20697;-83
2022/03/01 06:52:03;;;;;;;10.25;7.88;;;;;;;;;;5056926;28;20209;-84
2022/03/01 06:54:31;;;;;;;12.13;8.57;;;;;;;;;;5057691;28;20229;-83
2022/03/01 06:56:59;;;;;;;13.27;6.65;;;;;;;;;;5056782;28;20673;-83
2022/03/01 06:59:29;;;;;;;9.40;7.80;;;;;;;;;;5056712;28;20205;-83
2022/03/01 07:01:57;;;;;;;9.63;7.25;;;;;;;;;;5056583;28;20322;-81
2022/03/01 07:04:24;;;;;;;11.00;7.57;;;;;;;;;;5057184;28;20201;-84
2022/03/01 07:06:51;;;;;;;11.45;8.25;;;;;;;;;;5057004;28;20212;-83
2022/03/01 07:09:19;;;;;;;11.02;7.57;;;;;;;;;;5056683;28;20232;-83
2022/03/01 07:11:46;;;;;;;12.45;8.07;;;;;;;;;;5056637;28;20649;-83
2022/03/01 07:14:15;;;;;;;13.00;8.27;;;;;;;;;;5057652;28;20229;-84
2022/03/01 07:16:43;;;;;;;10.32;8.02;;;;;;;;;;5057187;28;20243;-84
2022/03/01 07:19:10;;;;;;;10.40;7.20;;;;;;;;;;5057934;28;20244;-84
2022/03/01 07:21:37;;;;;;;9.75;6.30;;;;;;;;;;5056730;28;20685;-84
2022/03/01 07:24:06;;;;;;;9.88;7.25;;;;;;;;;;5057251;28;20706;-84
2022/03/01 07:26:33;;;;;;;10.38;7.45;;;;;;;;;;5057006;28;20220;-83
2022/03/01 07:29:00;;;;;;;8.50;7.43;;;;;;;;;;5056492;28;20224;-84
2022/03/01 07:31:29;;;;;;;10.70;7.93;;;;;;;;;;5056883;28;20230;-84
2022/03/01 07:33:56;;;;;;;11.05;8.32;;;;;;;;;;5057448;28;20238;-85
2022/03/01 07:36:24;;;;;;;11.23;9.15;;;;;;;;;;5056920;28;20214;-84
2022/03/01 07:38:51;;;;;;;8.10;7.10;;;;;;;;;;5057227;28;20216;-83
2022/03/01 07:41:18;;;;;;;14.27;9.73;;;;;;;;;;5056867;28;20209;-84
2022/03/01 07:43:46;;;;;;;11.88;8.63;;;;;;;;;;5056891;28;20236;-82
2022/03/01 07:46:13;;;;;;;9.75;7.10;;;;;;;;;;5056580;28;20217;-83
2022/03/01 07:48:44;;;;;;;8.88;7.03;;;;;;;;;;5056772;28;20373;-83
2022/03/01 07:51:12;;;;;;;12.13;9.82;;;;;;;;;;5056887;28;20241;-84
2022/03/01 07:53:40;;;;;;;10.57;8.13;;;;;;;;;;5057908;28;20241;-85
2022/03/01 07:56:07;;;;;;;9.90;7.78;;;;;;;;;;5057931;28;20209;-84
2022/03/01 07:58:34;;;;;;;10.10;7.72;;;;;;;;;;5057865;28;20666;-84
2022/03/01 08:01:02;;;;;;;12.18;8.25;;;;;;;;;;5058550;28;20205;-83
2022/03/01 08:03:29;;;;;;;10.80;8.25;;;;;;;;;;5062349;28;20237;-84
2022/03/01 08:05:58;;;;;;;8.43;6.22;;;;;;;;;;5058448;28;20251;-83
2022/03/01 08:08:27;;;;;;;9.98;8.27;;;;;;;;;;5058313;28;20236;-84
2022/03/01 08:10:54;;;;;;;10.75;7.80;;;;;;;;;;5068199;28;20229;-82
2022/03/01 08:13:21;;;;;;;9.80;7.43;;;;;;;;;;5066961;28;20233;-83
2022/03/01 08:15:49;;;;;;;11.25;8.15;;;;;;;;;;5068073;28;20225;-82
2022/03/01 08:18:16;;;;;;;9.57;7.55;;;;;;;;;;5066231;28;20236;-86
2022/03/01 08:20:43;;;;;;;9.68;7.38;;;;;;;;;;5065850;28;20201;-83
2022/03/01 08:23:12;;;;;;;7.90;7.10;;;;;;;;;;5066277;28;20225;-82
2022/03/01 08:25:39;;;;;;;9.05;7.47;;;;;;;;;;5059964;28;20623;-82
2022/03/01 08:28:07;;;;;;;11.45;7.88;;;;;;;;;;5058308;28;20275;-81
2022/03/01 08:30:35;;;;;;;7.28;6.47;;;;;;;;;;5057902;28;20260;-84
2022/03/01 08:33:03;;;;;;;11.23;8.15;;;;;;;;;;5058607;28;20274;-82
2022/03/01 08:35:32;;;;;;;8.85;6.85;;;;;;;;;;5059021;28;20619;-84
2022/03/01 08:38:02;;;;;;;8.07;6.55;;;;;;;;;;5058289;28;20296;-85
2022/03/01 08:40:32;;;;;;;6.97;5.90;;;;;;;;;;5058831;28;20209;-83
2022/03/01 08:42:59;;;;;;;9.25;6.90;;;;;;;;;;5058948;28;20580;-84
2022/03/01 08:45:28;;;;;;;8.63;6.75;;;;;;;;;;5064750;28;20212;-84
2022/03/01 08:47:55;;;;;;;8.10;6.80;;;;;;;;;;5069384;28;20202;-84
2022/03/01 08:50:22;;;;;;;7.38;6.15;;;;;;;;;;5067926;28;20233;-84
2022/03/01 08:52:50;;;;;;;8.00;6.50;;;;;;;;;;5069510;28;20229;-83
2022/03/01 08:55:18;;;;;;;7.07;6.10;;;;;;;;;;5066422;28;20240;-84
2022/03/01 08:57:46;;;;;;;8.55;7.45;;;;;;;;;;5058423;28;20658;-82
2022/03/01 09:00:17;;;;;;;6.78;5.93;;;;;;;;;;5057082;28;20259;-83
2022/03/01 09:02:44;;;;;;;7.50;5.90;;;;;;;;;;5057308;28;20230;-83
2022/03/01 09:05:12;;;;;;;9.55;7.78;;;;;;;;;;5057130;28;20216;-83
2022/03/01 09:07:39;;;;;;;10.05;7.47;;;;;;;;;;5056450;28;20267;-83
2022/03/01 09:10:23;;;;;;;11.25;8.20;;;;;;;;;;5093314;28;21074;-85
2022/03/01 09:12:52;;;;;;;9.18;6.65;;;;;;;;;;5092985;28;20238;-84
2022/03/01 09:15:19;;;;;;;8.15;6.63;;;;;;;;;;5093052;28;20200;-84
2022/03/01 09:17:47;;;;;;;8.52;6.65;;;;;;;;;;5092918;28;20645;-82
2022/03/01 09:20:15;;;;;;;10.55;6.80;;;;;;;;;;5092879;28;20216;-85
2022/03/01 09:22:43;;;;;;;8.50;7.20;;;;;;;;;;5079626;28;20212;-84
2022/03/01 09:25:11;;;;;;;7.43;6.70;;;;;;;;;;5087146;28;20219;-87
2022/03/01 09:27:40;;;;;;;9.18;7.25;;;;;;;;;;5073122;28;20205;-86
2022/03/01 09:30:08;;;;;;;7.43;6.18;;;;;;;;;;5072500;28;20307;-87
2022/03/01 09:32:36;;;;;;;6.75;6.05;;;;;;;;;;5082810;28;20205;-88
2022/03/01 09:35:04;;;;;;;6.72;5.78;;;;;;;;;;5079713;28;20593;-88
2022/03/01 09:37:32;;;;;;;7.45;6.25;;;;;;;;;;5094780;28;20208;-88
2022/03/01 09:39:59;;;;;;;9.05;7.38;;;;;;;;;;5074507;28;20274;-87
2022/03/01 09:42:28;;;;;;;8.02;6.45;;;;;;;;;;5074242;28;20213;-88
2022/03/01 09:44:57;;;;;;;8.55;6.15;;;;;;;;;;5075263;28;20216;-86
2022/03/01 09:47:24;;;;;;;7.10;6.40;;;;;;;;;;5081721;28;20697;-84
2022/03/01 09:49:52;;;;;;;6.53;5.70;;;;;;;;;;5086837;28;20233;-88
2022/03/01 09:52:20;;;;;;;9.20;6.70;;;;;;;;;;5073449;28;20654;-88
2022/03/01 09:54:50;;;;;;;5.85;5.10;;;;;;;;;;5074919;28;20207;-88
2022/03/01 09:57:20;;;;;;;6.07;5.53;;;;;;;;;;5075275;28;20578;-88
2022/03/01 09:59:47;;;;;;;5.60;5.00;;;;;;;;;;5073843;28;20221;-86
2022/03/01 10:02:16;;;;;;;5.57;4.93;;;;;;;;;;5074678;28;20217;-86
2022/03/01 10:04:52;;;;;;;5.40;4.90;;;;;;;;;;5084437;28;20205;-87
2022/03/01 10:07:23;;;;;;;4.78;4.38;;;;;;;;;;5089796;28;20645;-87
2022/03/01 10:09:51;;;;;;;5.80;5.20;;;;;;;;;;5075875;28;20233;-86
2022/03/01 10:12:24;;;;;;;9.32;6.65;;;;;;;;;;5072957;28;20200;-87
2022/03/01 10:14:59;;;;;;;5.50;4.53;;;;;;;;;;5073541;28;20259;-88
2022/03/01 10:17:35;;;;;;;5.82;5.22;;;;;;;;;;5084192;28;20601;-86
2022/03/01 10:20:07;;;;;;;7.35;5.47;;;;;;;;;;5088050;28;20270;-87
2022/03/01 10:22:34;;;;;;;5.20;4.70;;;;;;;;;;5078403;28;20636;-87
2022/03/01 10:25:07;;;;;;;5.30;4.80;;;;;;;;;;5079140;28;20205;-87
2022/03/01 10:27:34;;;;;;;4.60;4.20;;;;;;;;;;5058749;28;20201;-88
2022/03/01 10:30:03;;;;;;;5.93;4.38;;;;;;;;;;5061703;28;20233;-88
2022/03/01 10:32:32;;;;;;;6.25;5.10;;;;;;;;;;5058933;28;20198;-87
2022/03/01 10:35:02;;;;;;;6.32;5.15;;;;;;;;;;5065083;28;20619;-87
2022/03/01 10:37:32;;;;;;;5.28;4.15;;;;;;;;;;5060188;28;20204;-88
2022/03/01 10:40:27;;;;;;;5.93;5.00;;;;;;;;;;5072343;28;20294;-88
2022/03/01 10:43:05;;;;;;;5.88;5.32;;;;;;;;;;5037647;28;20205;-88
2022/03/01 10:45:39;;;;;;;6.00;5.25;;;;;;;;;;5080364;28;20196;-86
2022/03/01 10:48:11;;;;;;;4.95;4.45;;;;;;;;;;5073725;28;20197;-87
2022/03/01 10:50:40;;;;;;;5.82;5.25;;;;;;;;;;5067876;28;20251;-87
2022/03/01 10:53:08;;;;;;;6.07;5.18;;;;;;;;;;5079624;28;20212;-87
2022/03/01 10:55:41;;;;;;;5.03;4.53;;;;;;;;;;5079846;28;20657;-88
2022/03/01 10:58:11;;;;;;;5.03;4.53;;;;;;;;;;5080095;28;20209;-86
2022/03/01 11:00:39;;;;;;;6.00;5.20;;;;;;;;;;5063983;28;20205;-88
2022/03/01 11:03:09;;;;;;;4.97;4.40;;;;;;;;;;5074460;28;20649;-87
2022/03/01 11:05:38;;;;;;;8.27;5.25;;;;;;;;;;5069523;28;20239;-87
2022/03/01 11:08:08;;;;;;;5.63;5.03;;;;;;;;;;5060927;28;20206;-86
2022/03/01 11:10:38;;;;;;;5.72;5.10;;;;;;;;;;5071548;28;20225;-88
2022/03/01 11:13:08;;;;;;;6.18;5.50;;;;;;;;;;5075920;28;20209;-88
2022/03/01 11:15:57;;;;;;;5.72;5.10;;;;;;;;;;5069248;28;20373;-88
2022/03/01 11:18:39;;;;;;;3.80;3.42;;;;;;;;;;5079832;28;20282;-88
2022/03/01 11:21:07;;;;;;;3.78;3.47;;;;;;;;;;5077840;28;20197;-87
2022/03/01 11:23:35;;;;;;;5.57;3.20;;;;;;;;;;5074024;28;20215;-88
2022/03/01 11:26:10;;;;;;;3.65;3.35;;;;;;;;;;5077815;28;20577;-87
2022/03/01 11:28:40;;;;;;;4.45;3.40;;;;;;;;;;5077635;28;20228;-87
2022/03/01 11:31:21;;;;;;;5.32;4.72;;;;;;;;;;5059242;28;20233;-87
2022/03/01 11:33:58;;;;;;;5.85;4.85;;;;;;;;;;5062905;28;20197;-87
2022/03/01 11:36:29;;;;;;;5.50;3.97;;;;;;;;;;5076841;28;20219;-87
2022/03/01 11:39:07;;;;;;;6.22;5.53;;;;;;;;;;5057310;28;20229;-87
2022/03/01 11:41:43;;;;;;;6.57;5.95;;;;;;;;;;5056908;28;20201;-87
2022/03/01 11:44:11;;;;;;;5.32;4.63;;;;;;;;;;5057800;28;20219;-87
2022/03/01 11:46:44;;;;;;;6.20;4.38;;;;;;;;;;5056568;28;20211;-87
2022/03/01 11:49:15;;;;;;;6.38;4.43;;;;;;;;;;5056618;28;20233;-87
2022/03/01 11:51:49;;;;;;;5.13;4.60;;;;;;;;;;5056353;28;20221;-86
2022/03/01 11:54:21;;;;;;;4.63;3.88;;;;;;;;;;5057129;28;20221;-87
2022/03/01 11:56:50;;;;;;;4.93;3.80;;;;;;;;;;5056861;28;20259;-87
2022/03/01 11:59:19;;;;;;;4.35;3.90;;;;;;;;;;5056578;28;20218;-88
2022/03/01 12:01:48;;;;;;;6.78;5.15;;;;;;;;;;5055816;28;20210;-87
2022/03/01 12:04:24;;;;;;;4.85;4.43;;;;;;;;;;5063501;28;20628;-87
2022/03/01 12:06:54;;;;;;;4.80;4.03;;;;;;;;;;5064237;28;20292;-87
2022/03/01 12:09:24;;;;;;;3.75;3.33;;;;;;;;;;5065717;28;20237;-87
2022/03/01 12:12:01;;;;;;;4.45;3.50;;;;;;;;;;5063013;28;20270;-87
2022/03/01 12:14:33;;;;;;;2.97;2.78;;;;;;;;;;5064447;28;20193;-88
2022/03/01 12:17:01;;;;;;;4.15;3.63;;;;;;;;;;5065642;28;20552;-87
2022/03/01 12:19:32;;;;;;;5.10;4.60;;;;;;;;;;5058440;28;20229;-87
2022/03/01 12:22:02;;;;;;;5.50;4.60;;;;;;;;;;5057213;28;20205;-87
2022/03/01 12:24:31;;;;;;;4.10;3.50;;;;;;;;;;5072611;28;20207;-88
2022/03/01 12:27:01;;;;;;;4.53;4.07;;;;;;;;;;5069286;28;20233;-85
2022/03/01 12:29:31;;;;;;;6.22;4.63;;;;;;;;;;5074028;28;20724;-87
2022/03/01 12:32:01;;;;;;;5.00;4.38;;;;;;;;;;5075231;28;20221;-88
2022/03/01 12:34:33;;;;;;;5.78;4.13;;;;;;;;;;5073195;28;20201;-85
2022/03/01 12:37:04;;;;;;;5.22;4.72;;;;;;;;;;5075205;28;20193;-87
2022/03/01 12:39:32;;;;;;;4.38;3.75;;;;;;;;;;5058453;28;20229;-86
2022/03/01 12:42:00;;;;;;;6.47;4.72;;;;;;;;;;5056071;28;20224;-87
2022/03/01 12:44:31;;;;;;;5.80;4.13;;;;;;;;;;5056582;28;20582;-86
2022/03/01 12:47:01;;;;;;;4.68;3.90;;;;;;;;;;5056412;28;20724;-87
2022/03/01 12:49:33;;;;;;;6.28;4.68;;;;;;;;;;5056812;28;20225;-87
2022/03/01 12:52:01;;;;;;;4.50;4.00;;;;;;;;;;5056273;28;20241;-86
2022/03/01 12:54:30;;;;;;;5.30;4.80;;;;;;;;;;5076892;28;20213;-87
2022/03/01 12:57:01;;;;;;;5.72;5.18;;;;;;;;;;5056329;28;20206;-87
2022/03/01 12:59:32;;;;;;;5.70;4.82;;;;;;;;;;5057170;28;20229;-87
2022/03/01 13:02:02;;;;;;;6.05;5.22;;;;;;;;;;5075429;28;20212;-85
2022/03/01 13:04:33;;;;;;;5.75;5.05;;;;;;;;;;5069547;28;20265;-86
2022/03/01 13:07:01;;;;;;;5.85;4.85;;;;;;;;;;5075034;28;20203;-87
2022/03/01 13:09:29;;;;;;;5.28;4.60;;;;;;;;;;5075535;28;20273;-86
2022/03/01 13:11:59;;;;;;;5.63;4.85;;;;;;;;;;5075117;28;20263;-85
2022/03/01 13:14:27;;;;;;;5.25;4.75;;;;;;;;;;5076136;28;20295;-86
2022/03/01 13:16:56;;;;;;;5.43;4.93;;;;;;;;;;5075854;28;20205;-86
2022/03/01 13:19:29;;;;;;;5.32;4.10;;;;;;;;;;5075718;28;20221;-87
2022/03/01 13:22:02;;;;;;;4.32;3.85;;;;;;;;;;5075722;28;20205;-86
2022/03/01 13:24:34;;;;;;;5.75;4.55;;;;;;;;;;5066432;28;20259;-84
2022/03/01 13:27:05;;;;;;;4.82;4.28;;;;;;;;;;5059129;28;20633;-85
2022/03/01 13:29:36;;;;;;;4.10;3.70;;;;;;;;;;5072793;28;20230;-87
2022/03/01 13:32:07;;;;;;;8.10;4.47;;;;;;;;;;5059298;28;20430;-87
2022/03/01 13:34:35;;;;;;;3.83;3.38;;;;;;;;;;5073357;28;20209;-87
2022/03/01 13:37:09;;;;;;;3.83;3.35;;;;;;;;;;5073860;28;20673;-86
2022/03/01 13:39:38;;;;;;;4.60;3.95;;;;;;;;;;5061199;28;20224;-86
2022/03/01 13:42:07;;;;;;;3.45;3.15;;;;;;;;;;5060329;28;20205;-85
2022/03/01 13:44:36;;;;;;;3.83;3.10;;;;;;;;;;5058312;28;20697;-86
2022/03/01 13:47:10;;;;;;;3.22;2.92;;;;;;;;;;5057124;28;20293;-86
2022/03/01 13:49:40;;;;;;;3.38;2.95;;;;;;;;;;5056212;28;20758;-87
2022/03/01 13:52:18;;;;;;;2.80;2.60;;;;;;;;;;5056186;28;20241;-86
2022/03/01 13:54:49;;;;;;;3.13;2.92;;;;;;;;;;5066271;28;20226;-87
2022/03/01 13:57:26;;;;;;;3.67;3.38;;;;;;;;;;5080798;28;20208;-89
2022/03/01 14:00:00;;;;;;;3.42;3.13;;;;;;;;;;5070879;28;20225;-88
2022/03/01 14:02:27;;;;;;;3.03;2.80;;;;;;;;;;5058797;28;20209;-86
2022/03/01 14:05:00;;;;;;;3.47;2.75;;;;;;;;;;5059102;28;20210;-86
2022/03/01 14:07:28;;;;;;;2.50;2.30;;;;;;;;;;5059353;28;20288;-86
2022/03/01 14:09:56;;;;;;;5.40;4.40;;;;;;;;;;5064497;28;20236;-85
2022/03/01 14:12:35;;;;;;;5.40;4.82;;;;;;;;;;5079617;28;20221;-88
2022/03/01 14:15:04;;;;;;;5.75;4.28;;;;;;;;;;5079019;28;20567;-87
2022/03/01 14:17:32;;;;;;;5.78;4.63;;;;;;;;;;5060351;28;20239;-86
2022/03/01 14:20:00;;;;;;;4.40;3.53;;;;;;;;;;5059936;28;20240;-88
2022/03/01 14:22:29;;;;;;;5.55;5.05;;;;;;;;;;5065346;28;20209;-87
2022/03/01 14:24:59;;;;;;;4.45;4.05;;;;;;;;;;5059624;28;20209;-85
2022/03/01 14:27:27;;;;;;;4.90;4.40;;;;;;;;;;5079164;28;20205;-88
2022/03/01 14:29:55;;;;;;;4.85;4.30;;;;;;;;;;5072205;28;20221;-87
2022/03/01 14:32:22;;;;;;;4.15;3.28;;;;;;;;;;5078157;28;20328;-85
2022/03/01 14:34:50;;;;;;;4.10;3.70;;;;;;;;;;5076828;28;20205;-87
2022/03/01 14:37:17;;;;;;;5.25;3.67;;;;;;;;;;5078549;28;20208;-85
2022/03/01 14:39:46;;;;;;;4.82;3.88;;;;;;;;;;5078306;28;20632;-86
2022/03/01 14:42:13;;;;;;;3.63;2.97;;;;;;;;;;5078364;28;20202;-86
2022/03/01 14:44:41;;;;;;;3.90;3.40;;;;;;;;;;5078692;28;20734;-87
2022/03/01 14:47:08;;;;;;;3.55;3.22;;;;;;;;;;5078936;28;20204;-87